Time;durP1;ratioP1;P1;durP2;ratioP2;P2;SDS_P1;SDS_P2;PMS_P1;PMS_P2;Temp;Humidity;BMP_temperature;BMP_pressure;BME280_temperature;BME280_humidity;BME280_pressure;Samples;Min_cycle;Max_cycle;Signal;HPM_P1;HPM_P2
2022/07/12 00:00:37;;;;;;;2.33;1.33;;;;;16.50;96955.00;;;;8347467;28;20227;-65
2022/07/12 00:04:41;;;;;;;3.80;1.30;;;;;16.40;96959.00;;;;8334860;28;20729;-66
2022/07/12 00:08:44;;;;;;;2.15;1.30;;;;;16.30;96951.00;;;;8339374;28;20229;-66
2022/07/12 00:12:48;;;;;;;1.20;1.20;;;;;16.20;96953.00;;;;8332222;28;20233;-66
2022/07/12 00:16:52;;;;;;;1.42;1.40;;;;;16.20;96949.00;;;;8336209;28;20221;-65
2022/07/12 00:20:57;;;;;;;1.38;1.35;;;;;16.10;96951.00;;;;8336211;28;20279;-66
2022/07/12 00:25:00;;;;;;;3.03;1.13;;;;;16.00;96949.00;;;;8337290;28;20623;-67
2022/07/12 00:29:04;;;;;;;1.58;1.48;;;;;15.70;96955.00;;;;8334854;28;20269;-66
2022/07/12 00:33:07;;;;;;;1.60;1.58;;;;;15.50;96955.00;;;;8338219;28;21865;-66
2022/07/12 00:37:11;;;;;;;1.35;1.35;;;;;15.40;96960.00;;;;8338494;28;20323;-65
2022/07/12 00:41:15;;;;;;;1.30;1.30;;;;;15.40;96951.00;;;;8336155;28;20225;-66
2022/07/12 00:45:18;;;;;;;1.70;1.60;;;;;15.40;96947.00;;;;8345562;28;20228;-66
2022/07/12 00:49:23;;;;;;;1.95;1.63;;;;;15.30;96953.00;;;;8329968;28;20255;-66
2022/07/12 00:53:28;;;;;;;1.20;1.20;;;;;15.40;96951.00;;;;8333116;28;20228;-66
2022/07/12 00:57:33;;;;;;;1.40;1.40;;;;;15.40;96950.00;;;;8332733;28;20230;-67
2022/07/12 01:01:36;;;;;;;2.70;1.73;;;;;15.40;96943.00;;;;8333880;28;20224;-66
2022/07/12 01:05:39;;;;;;;1.48;1.42;;;;;15.50;96945.00;;;;8336109;28;20935;-68
2022/07/12 01:09:45;;;;;;;1.33;1.33;;;;;15.60;96943.00;;;;8329072;28;20229;-66
2022/07/12 01:13:50;;;;;;;1.50;1.50;;;;;15.70;96943.00;;;;8344180;28;20652;-64
2022/07/12 01:17:54;;;;;;;1.90;1.80;;;;;15.80;96941.00;;;;8342745;28;20231;-65
2022/07/12 01:22:02;;;;;;;4.38;1.67;;;;;15.80;96941.00;;;;8334318;28;20229;-65
2022/07/12 01:26:07;;;;;;;3.60;1.38;;;;;15.80;96939.00;;;;8343958;28;20217;-65
2022/07/12 01:30:11;;;;;;;1.27;1.27;;;;;15.80;96945.00;;;;8336649;28;20256;-65
2022/07/12 01:34:14;;;;;;;3.40;1.52;;;;;15.80;96941.00;;;;8338974;28;20327;-67
2022/07/12 01:38:18;;;;;;;3.25;1.65;;;;;15.80;96944.00;;;;8345303;28;20677;-66
2022/07/12 01:42:23;;;;;;;2.85;1.52;;;;;15.80;96941.00;;;;8325699;28;20344;-66
2022/07/12 01:46:26;;;;;;;1.83;1.70;;;;;15.80;96944.00;;;;8337082;28;20227;-64
2022/07/12 01:50:30;;;;;;;1.70;1.60;;;;;15.80;96947.00;;;;8331168;28;20227;-67
2022/07/12 01:54:34;;;;;;;1.85;1.75;;;;;15.70;96938.00;;;;8340191;28;22194;-66
2022/07/12 01:58:39;;;;;;;2.33;1.60;;;;;15.60;96932.00;;;;8336095;28;20401;-66
2022/07/12 02:02:42;;;;;;;1.63;1.52;;;;;15.50;96933.00;;;;8335849;28;20722;-64
2022/07/12 02:06:46;;;;;;;1.80;1.70;;;;;15.40;96927.00;;;;8343616;28;20233;-66
2022/07/12 02:10:49;;;;;;;2.13;1.65;;;;;15.30;96939.00;;;;8328076;28;20323;-68
2022/07/12 02:14:54;;;;;;;3.03;1.77;;;;;15.20;96932.00;;;;8323161;28;20232;-65
2022/07/12 02:18:57;;;;;;;3.20;1.67;;;;;15.00;96941.00;;;;8332515;28;20666;-66
2022/07/12 02:23:00;;;;;;;1.88;1.40;;;;;14.80;96936.00;;;;8336349;28;20251;-65
2022/07/12 02:27:05;;;;;;;3.17;1.70;;;;;14.70;96942.00;;;;8335489;28;20404;-65
2022/07/12 02:31:09;;;;;;;1.92;1.70;;;;;14.60;96943.00;;;;8332824;28;20232;-68
2022/07/12 02:35:13;;;;;;;2.65;1.77;;;;;14.40;96937.00;;;;8325548;28;20249;-65
2022/07/12 02:39:16;;;;;;;1.52;1.45;;;;;14.30;96952.00;;;;8346686;28;20303;-64
2022/07/12 02:43:20;;;;;;;1.50;1.50;;;;;14.10;96943.00;;;;8337297;28;20277;-65
2022/07/12 02:47:24;;;;;;;2.13;1.50;;;;;14.00;96942.00;;;;8331458;28;20221;-65
2022/07/12 02:51:27;;;;;;;1.90;1.50;;;;;13.90;96948.00;;;;8346869;28;20246;-65
2022/07/12 02:55:31;;;;;;;1.60;1.60;;;;;13.90;96945.00;;;;8337603;28;20242;-67
2022/07/12 02:59:34;;;;;;;4.78;1.95;;;;;13.80;96946.00;;;;8330627;28;20223;-65
2022/07/12 03:03:38;;;;;;;2.10;1.58;;;;;13.70;96947.00;;;;8362753;22;20265;-67
2022/07/12 03:07:42;;;;;;;3.50;1.85;;;;;13.60;96947.00;;;;8353229;28;20235;-64
2022/07/12 03:11:45;;;;;;;2.85;1.50;;;;;13.50;96951.00;;;;8351469;28;20225;-64
2022/07/12 03:15:49;;;;;;;2.40;1.75;;;;;13.40;96955.00;;;;8350749;28;20236;-66
2022/07/12 03:19:54;;;;;;;3.40;2.00;;;;;13.30;96958.00;;;;8351722;28;20310;-65
2022/07/12 03:23:58;;;;;;;1.90;1.80;;;;;13.30;96956.00;;;;8345799;28;20638;-65
2022/07/12 03:28:01;;;;;;;2.55;2.00;;;;;13.30;96958.00;;;;8335452;28;20239;-65
2022/07/12 03:32:05;;;;;;;2.20;2.10;;;;;13.30;96965.00;;;;8341080;28;20225;-66
2022/07/12 03:36:10;;;;;;;4.50;2.30;;;;;13.30;96967.00;;;;8341691;28;20242;-65
2022/07/12 03:40:15;;;;;;;3.60;2.05;;;;;13.30;96971.00;;;;8339650;28;20342;-66
2022/07/12 03:44:18;;;;;;;3.25;2.20;;;;;13.30;96968.00;;;;8335322;28;20220;-64
2022/07/12 03:48:21;;;;;;;1.70;1.70;;;;;13.30;96968.00;;;;8335114;28;20227;-65
2022/07/12 03:52:25;;;;;;;2.10;2.00;;;;;13.40;96971.00;;;;8340203;28;20232;-67
2022/07/12 04:00:49;;;;;;;2.10;2.00;;;;;13.50;96976.00;;;;8333846;28;20220;-64
2022/07/12 04:04:53;;;;;;;4.13;1.88;;;;;13.50;96979.00;;;;8314852;28;20239;-64
2022/07/12 04:08:57;;;;;;;2.22;1.77;;;;;13.70;96973.00;;;;8308456;28;20542;-65
2022/07/12 04:13:01;;;;;;;2.50;2.40;;;;;13.90;96978.00;;;;8315737;28;20244;-63
2022/07/12 04:17:05;;;;;;;5.80;2.38;;;;;14.30;96977.00;;;;8322095;28;20578;-64
2022/07/12 04:21:09;;;;;;;2.03;1.92;;;;;14.60;96980.00;;;;8327586;28;20251;-64
2022/07/12 04:25:13;;;;;;;2.20;1.90;;;;;15.00;96979.00;;;;8330267;28;20224;-64
2022/07/12 04:29:17;;;;;;;2.72;1.80;;;;;15.40;96985.00;;;;8313502;28;20237;-64
2022/07/12 04:33:20;;;;;;;7.18;1.90;;;;;15.70;96987.00;;;;8318663;28;20240;-65
2022/07/12 04:37:23;;;;;;;2.80;1.75;;;;;16.00;96979.00;;;;8339227;28;20232;-64
2022/07/12 04:41:28;;;;;;;4.03;1.60;;;;;16.20;96991.00;;;;8317401;28;20236;-64
2022/07/12 04:45:31;;;;;;;2.40;1.77;;;;;16.50;96988.00;;;;8316390;28;20559;-65
2022/07/12 04:49:35;;;;;;;3.03;2.08;;;;;17.00;97001.00;;;;8307202;28;20308;-63
2022/07/12 04:53:38;;;;;;;3.80;1.77;;;;;17.40;97000.00;;;;8313148;28;20240;-63
2022/07/12 04:57:44;;;;;;;1.60;1.50;;;;;17.80;97009.00;;;;8313284;28;20681;-64
2022/07/12 05:01:47;;;;;;;2.08;1.83;;;;;18.30;97008.00;;;;8305581;28;20229;-63
2022/07/12 05:05:50;;;;;;;3.88;1.60;;;;;18.70;97006.00;;;;8310827;28;20283;-63
2022/07/12 05:09:54;;;;;;;1.77;1.50;;;;;19.10;97015.00;;;;8308322;28;20411;-64
2022/07/12 05:13:58;;;;;;;2.40;1.60;;;;;19.40;97014.00;;;;8304762;28;20240;-65
2022/07/12 05:18:01;;;;;;;2.38;1.60;;;;;19.50;97017.00;;;;8311220;28;20320;-64
2022/07/12 05:22:05;;;;;;;1.63;1.52;;;;;19.30;97024.00;;;;8317506;28;20896;-64
2022/07/12 05:26:08;;;;;;;1.55;1.48;;;;;19.10;97023.00;;;;8312877;28;20240;-64
2022/07/12 05:30:21;;;;;;;1.60;1.60;;;;;18.90;97028.00;;;;8307458;28;20225;-64
2022/07/12 05:34:25;;;;;;;3.20;1.50;;;;;18.80;97027.00;;;;8319424;28;20682;-64
2022/07/12 05:38:28;;;;;;;1.70;1.60;;;;;18.70;97033.00;;;;8315582;28;20753;-64
2022/07/12 05:42:31;;;;;;;1.50;1.50;;;;;18.60;97028.00;;;;8317147;28;20241;-64
2022/07/12 05:46:36;;;;;;;1.80;1.70;;;;;18.60;97033.00;;;;8320307;28;20228;-64
2022/07/12 05:50:40;;;;;;;1.92;1.80;;;;;18.80;97031.00;;;;8314836;28;20221;-64
2022/07/12 05:54:43;;;;;;;3.28;1.60;;;;;19.10;97033.00;;;;8322163;28;20232;-65
2022/07/12 05:58:47;;;;;;;1.63;1.55;;;;;19.40;97028.00;;;;8310311;28;20217;-64
2022/07/12 06:02:51;;;;;;;1.45;1.45;;;;;19.70;97038.00;;;;8309057;28;20233;-64
2022/07/12 06:06:56;;;;;;;1.65;1.55;;;;;20.20;97041.00;;;;8310557;28;20287;-64
2022/07/12 06:10:59;;;;;;;3.15;1.52;;;;;20.80;97045.00;;;;8322137;28;20228;-64
2022/07/12 06:15:02;;;;;;;1.77;1.77;;;;;21.10;97048.00;;;;8331069;28;20602;-64
2022/07/12 06:19:07;;;;;;;4.57;1.88;;;;;21.30;97045.00;;;;8315687;28;20227;-64
2022/07/12 06:23:10;;;;;;;1.63;1.63;;;;;21.70;97055.00;;;;8329478;28;20226;-65
2022/07/12 06:27:13;;;;;;;1.48;1.45;;;;;21.70;97058.00;;;;8307567;28;20901;-64
2022/07/12 06:31:16;;;;;;;4.57;1.70;;;;;21.70;97046.00;;;;8308973;28;20229;-64
2022/07/12 06:35:21;;;;;;;1.58;1.48;;;;;21.90;97054.00;;;;8321882;28;20228;-64
2022/07/12 06:39:25;;;;;;;3.80;1.80;;;;;22.40;97058.00;;;;8309874;28;20229;-64
2022/07/12 06:43:28;;;;;;;1.52;1.45;;;;;23.10;97057.00;;;;8312043;28;20224;-65
2022/07/12 06:47:31;;;;;;;2.35;1.85;;;;;23.50;97065.00;;;;8324097;28;20232;-64
2022/07/12 06:51:39;;;;;;;2.85;1.65;;;;;24.00;97058.00;;;;8314295;28;20723;-64
2022/07/12 06:55:44;;;;;;;2.35;1.55;;;;;24.40;97062.00;;;;8312889;28;20231;-62
2022/07/12 06:59:47;;;;;;;1.67;1.58;;;;;24.50;97054.00;;;;8333293;28;20223;-64
2022/07/12 07:03:51;;;;;;;3.72;1.70;;;;;24.70;97061.00;;;;8328708;28;20224;-62
2022/07/12 07:07:55;;;;;;;8.10;1.70;;;;;24.80;97055.00;;;;8322326;28;20307;-63
2022/07/12 07:11:58;;;;;;;1.75;1.65;;;;;25.30;97066.00;;;;8333513;28;20590;-61
2022/07/12 07:16:02;;;;;;;1.85;1.75;;;;;25.30;97063.00;;;;8330853;28;20241;-61
2022/07/12 07:20:06;;;;;;;1.50;1.40;;;;;25.50;97075.00;;;;8316325;28;20244;-61
2022/07/12 07:24:11;;;;;;;3.17;1.63;;;;;25.80;97072.00;;;;8324774;28;20318;-61
2022/07/12 07:28:14;;;;;;;1.65;1.60;;;;;25.90;97081.00;;;;8319974;28;20808;-62
2022/07/12 07:32:25;;;;;;;1.70;1.60;;;;;25.80;97081.00;;;;8325533;28;20300;-61
2022/07/12 07:36:28;;;;;;;1.60;1.60;;;;;26.10;97088.00;;;;8319531;28;20236;-61
2022/07/12 07:40:32;;;;;;;2.05;1.60;;;;;26.10;97089.00;;;;8334082;28;20305;-62
2022/07/12 07:44:35;;;;;;;26.92;4.05;;;;;26.60;97090.00;;;;8330886;28;20235;-63
2022/07/12 07:48:59;;;;;;;1.50;1.40;;;;;26.70;97091.00;;;;8325130;28;20791;-61
2022/07/12 07:53:02;;;;;;;3.63;1.60;;;;;26.30;97094.00;;;;8314491;28;20229;-63
2022/07/12 07:57:07;;;;;;;1.55;1.45;;;;;26.40;97094.00;;;;8312719;28;20236;-63
2022/07/12 08:01:10;;;;;;;1.27;1.27;;;;;26.70;97101.00;;;;8312184;28;20225;-62
2022/07/12 08:05:13;;;;;;;1.88;1.20;;;;;26.90;97091.00;;;;8318393;28;20229;-62
2022/07/12 08:09:17;;;;;;;1.60;1.50;;;;;27.20;97091.00;;;;8321399;28;21219;-62
2022/07/12 08:13:22;;;;;;;1.60;1.50;;;;;27.30;97094.00;;;;8327347;28;20232;-62
2022/07/12 08:17:25;;;;;;;1.33;1.33;;;;;26.90;97093.00;;;;8337511;28;20315;-63
2022/07/12 08:21:28;;;;;;;1.73;1.25;;;;;26.20;97099.00;;;;8327158;28;20308;-63
2022/07/12 08:25:31;;;;;;;2.22;1.40;;;;;25.70;97094.00;;;;8318076;28;20305;-62
2022/07/12 08:29:36;;;;;;;1.70;1.33;;;;;26.80;97097.00;;;;8311035;28;20880;-63
2022/07/12 08:33:39;;;;;;;1.63;1.52;;;;;26.60;97096.00;;;;8330758;28;20232;-62
2022/07/12 08:37:42;;;;;;;1.45;1.30;;;;;27.80;97096.00;;;;8329758;28;20696;-62
2022/07/12 08:41:46;;;;;;;1.90;1.70;;;;;28.80;97105.00;;;;8312183;28;20233;-63
2022/07/12 08:45:50;;;;;;;1.55;1.45;;;;;27.50;97102.00;;;;8317171;28;20231;-63
2022/07/12 08:50:12;;;;;;;2.15;1.50;;;;;26.40;97095.00;;;;8332681;28;20604;-63
2022/07/12 08:54:17;;;;;;;4.18;1.50;;;;;26.40;97099.00;;;;8336308;28;20225;-64
2022/07/12 08:58:20;;;;;;;1.50;1.40;;;;;25.90;97100.00;;;;8311607;28;20311;-63
2022/07/12 09:02:26;;;;;;;1.40;1.40;;;;;25.30;97097.00;;;;8313661;28;20245;-63
2022/07/12 09:06:29;;;;;;;3.53;1.35;;;;;25.20;97091.00;;;;8317937;28;20225;-63
2022/07/12 09:10:34;;;;;;;2.30;1.30;;;;;25.30;97087.00;;;;8317004;28;20563;-63
2022/07/12 09:14:37;;;;;;;4.47;1.30;;;;;25.90;97094.00;;;;8322448;28;20251;-62
2022/07/12 09:18:42;;;;;;;1.20;1.20;;;;;27.90;97091.00;;;;8316242;28;20276;-62
2022/07/12 09:22:55;;;;;;;1.40;1.30;;;;;28.80;97107.00;;;;8319816;28;20255;-63
2022/07/12 09:27:01;;;;;;;1.50;1.40;;;;;29.00;97100.00;;;;8318866;28;20214;-63
2022/07/12 09:31:05;;;;;;;1.40;1.30;;;;;28.80;97099.00;;;;8313940;28;20304;-63
2022/07/12 09:39:31;;;;;;;1.40;1.30;;;;;29.70;97103.00;;;;8315330;28;20307;-63
2022/07/12 09:43:34;;;;;;;3.63;1.50;;;;;28.40;97108.00;;;;8330126;28;20224;-63
2022/07/12 09:47:38;;;;;;;2.20;1.20;;;;;27.50;97113.00;;;;8311114;28;20309;-63
2022/07/12 09:51:45;;;;;;;1.35;1.35;;;;;26.70;97098.00;;;;8313571;28;20229;-63
2022/07/12 09:55:51;;;;;;;1.23;1.23;;;;;26.40;97103.00;;;;8315830;28;20707;-64
2022/07/12 10:00:01;;;;;;;1.70;1.20;;;;;27.40;97096.00;;;;8299571;28;20840;-63
2022/07/12 10:04:07;;;;;;;1.20;1.13;;;;;29.10;97105.00;;;;8306926;28;20823;-63
2022/07/12 10:08:12;;;;;;;1.10;1.10;;;;;30.70;97105.00;;;;8313077;28;20225;-63
2022/07/12 10:12:17;;;;;;;1.17;1.17;;;;;30.30;97106.00;;;;8319484;28;20232;-63
2022/07/12 10:16:26;;;;;;;2.38;1.20;;;;;30.50;97105.00;;;;8313148;28;20307;-62
2022/07/12 10:20:30;;;;;;;2.33;1.10;;;;;31.20;97103.00;;;;8315003;28;20725;-63
2022/07/12 10:24:54;;;;;;;1.42;1.20;;;;;31.10;97097.00;;;;8310993;28;20756;-63
2022/07/12 10:29:04;;;;;;;1.10;1.00;;;;;32.20;97101.00;;;;8323321;28;20662;-62
2022/07/12 10:33:17;;;;;;;3.00;0.90;;;;;31.30;97095.00;;;;8329376;28;20229;-63
2022/07/12 10:37:21;;;;;;;1.23;1.10;;;;;30.00;97091.00;;;;8314184;28;20233;-63
2022/07/12 10:41:25;;;;;;;1.00;1.00;;;;;28.70;97098.00;;;;8334568;28;20608;-62
2022/07/12 10:45:32;;;;;;;1.20;1.20;;;;;28.40;97097.00;;;;8318488;28;20256;-62
2022/07/12 10:49:37;;;;;;;1.08;1.08;;;;;30.00;97098.00;;;;8319660;28;20748;-62
2022/07/12 10:53:42;;;;;;;1.00;1.00;;;;;31.30;97085.00;;;;8316323;28;20223;-63
2022/07/12 10:57:50;;;;;;;1.00;1.00;;;;;32.90;97097.00;;;;8306194;28;20281;-63
2022/07/12 11:01:56;;;;;;;0.85;0.85;;;;;32.20;97090.00;;;;8319083;28;20287;-63
2022/07/12 11:06:03;;;;;;;1.10;1.10;;;;;30.40;97085.00;;;;8326319;28;20248;-63
2022/07/12 11:10:07;;;;;;;1.00;1.00;;;;;30.50;97091.00;;;;8309889;28;20236;-63
2022/07/12 11:14:21;;;;;;;1.00;1.00;;;;;31.90;97086.00;;;;8317155;28;20296;-64
2022/07/12 11:18:31;;;;;;;1.80;0.90;;;;;32.20;97088.00;;;;8325631;28;20233;-64
2022/07/12 11:22:35;;;;;;;1.15;1.00;;;;;32.50;97089.00;;;;8312098;28;20226;-64
2022/07/12 11:26:39;;;;;;;0.85;0.85;;;;;32.90;97084.00;;;;8325148;28;20240;-63
2022/07/12 11:30:50;;;;;;;1.00;1.00;;;;;32.70;97087.00;;;;8310664;28;20229;-64
2022/07/12 11:34:55;;;;;;;3.22;1.20;;;;;33.40;97082.00;;;;8317920;28;20796;-64
2022/07/12 11:38:58;;;;;;;0.88;0.88;;;;;33.30;97085.00;;;;8311872;28;20241;-63
2022/07/12 11:43:04;;;;;;;1.05;1.00;;;;;33.30;97073.00;;;;8321915;28;20282;-62
2022/07/12 11:47:09;;;;;;;1.00;1.00;;;;;34.10;97080.00;;;;8300246;28;20249;-64
2022/07/12 11:51:13;;;;;;;1.02;1.02;;;;;34.90;97076.00;;;;8314733;28;20225;-62
2022/07/12 11:55:16;;;;;;;0.80;0.80;;;;;35.40;97088.00;;;;8330893;28;21739;-63
2022/07/12 11:59:23;;;;;;;0.80;0.80;;;;;33.50;97084.00;;;;8321782;28;20309;-64
2022/07/12 12:03:28;;;;;;;3.63;1.10;;;;;33.30;97080.00;;;;8326619;28;20334;-63
2022/07/12 12:07:32;;;;;;;1.20;1.10;;;;;32.00;97094.00;;;;8311561;28;20740;-63
2022/07/12 12:11:36;;;;;;;1.35;1.00;;;;;32.50;97096.00;;;;8325081;28;20269;-64
2022/07/12 12:15:40;;;;;;;1.25;1.15;;;;;33.10;97084.00;;;;8311967;28;20265;-64
2022/07/12 12:19:44;;;;;;;1.30;1.10;;;;;33.90;97086.00;;;;8317947;28;20232;-63
2022/07/12 12:23:48;;;;;;;0.90;0.90;;;;;34.50;97080.00;;;;8320246;28;21098;-65
2022/07/12 12:27:56;;;;;;;1.10;1.10;;;;;33.10;97081.00;;;;8311739;28;20264;-63
2022/07/12 12:32:18;;;;;;;1.23;1.20;;;;;32.40;97085.00;;;;8320259;28;20226;-64
2022/07/12 12:36:25;;;;;;;0.90;0.90;;;;;32.30;97075.00;;;;8333165;28;20271;-62
2022/07/12 12:40:32;;;;;;;1.02;0.90;;;;;31.00;97071.00;;;;8314877;28;20312;-63
2022/07/12 12:44:36;;;;;;;0.90;0.90;;;;;30.50;97071.00;;;;8317243;28;20267;-62
2022/07/12 12:48:47;;;;;;;1.50;0.93;;;;;31.00;97079.00;;;;8313733;28;20240;-63
2022/07/12 12:52:52;;;;;;;4.57;1.13;;;;;30.40;97074.00;;;;8318517;28;20229;-62
2022/07/12 12:56:56;;;;;;;2.30;1.27;;;;;30.10;97071.00;;;;8318624;28;20236;-63
2022/07/12 13:00:59;;;;;;;2.10;1.17;;;;;30.10;97069.00;;;;8325572;28;20251;-64
2022/07/12 13:05:03;;;;;;;1.00;1.00;;;;;30.30;97062.00;;;;8321244;28;20882;-63
2022/07/12 13:09:07;;;;;;;1.20;1.10;;;;;30.50;97061.00;;;;8319881;28;20781;-63
2022/07/12 13:13:12;;;;;;;0.88;0.88;;;;;30.10;97067.00;;;;8319458;28;20878;-62
2022/07/12 13:17:21;;;;;;;1.35;1.05;;;;;29.90;97078.00;;;;8326233;28;20853;-63
2022/07/12 13:21:24;;;;;;;1.98;1.08;;;;;30.70;97081.00;;;;8315959;28;20619;-66
2022/07/12 13:25:30;;;;;;;1.73;1.02;;;;;30.90;97085.00;;;;8306967;28;20213;-66
2022/07/12 13:29:34;;;;;;;6.95;1.20;;;;;31.50;97075.00;;;;8316431;28;20218;-64
2022/07/12 13:33:37;;;;;;;1.25;1.00;;;;;31.80;97073.00;;;;8314704;28;20304;-66
2022/07/12 13:37:42;;;;;;;0.80;0.80;;;;;31.40;97084.00;;;;8312844;28;20232;-66
2022/07/12 13:41:47;;;;;;;0.98;0.98;;;;;31.50;97073.00;;;;8312056;28;20985;-65
2022/07/12 13:45:51;;;;;;;0.95;0.95;;;;;31.70;97079.00;;;;8319545;28;20304;-66
2022/07/12 13:49:54;;;;;;;1.77;0.80;;;;;31.80;97069.00;;;;8311035;28;20536;-65
2022/07/12 13:54:00;;;;;;;0.85;0.85;;;;;33.20;97072.00;;;;8324802;28;20229;-66
2022/07/12 13:58:07;;;;;;;1.00;1.00;;;;;33.70;97074.00;;;;8326041;28;20232;-66
2022/07/12 14:02:10;;;;;;;0.90;0.90;;;;;33.80;97068.00;;;;8321416;28;20229;-66
2022/07/12 14:06:14;;;;;;;0.98;0.90;;;;;34.40;97065.00;;;;8315225;28;20248;-66
2022/07/12 14:10:17;;;;;;;0.90;0.90;;;;;34.10;97072.00;;;;8332459;28;20297;-65
2022/07/12 14:15:13;;;;;;;2.10;0.90;;;;;33.40;97074.00;;;;8313182;28;20303;-66
2022/07/12 14:18:49;;;;;;;1.13;0.90;;;;;33.20;97068.00;;;;8309441;28;20229;-65
2022/07/12 14:22:52;;;;;;;2.00;0.75;;;;;32.20;97074.00;;;;8324643;28;20235;-66
2022/07/12 14:26:56;;;;;;;0.77;0.77;;;;;31.50;97071.00;;;;8328326;28;20229;-65
2022/07/12 14:31:01;;;;;;;2.35;1.10;;;;;31.30;97060.00;;;;8315542;28;20233;-65
2022/07/12 14:35:05;;;;;;;1.17;1.10;;;;;32.30;97061.00;;;;8314204;28;20236;-65
2022/07/12 14:39:09;;;;;;;0.98;0.98;;;;;33.00;97051.00;;;;8289280;28;20248;-66
2022/07/12 14:43:12;;;;;;;1.75;0.93;;;;;34.00;97053.00;;;;8315695;28;20743;-65
2022/07/12 14:47:18;;;;;;;46.72;2.00;;;;;33.30;97057.00;;;;8310914;28;20320;-65
2022/07/12 14:51:21;;;;;;;2.60;1.02;;;;;32.70;97052.00;;;;8309569;28;20749;-67
2022/07/12 14:55:25;;;;;;;0.90;0.90;;;;;32.80;97060.00;;;;8313912;28;20804;-68
2022/07/12 14:59:28;;;;;;;0.90;0.90;;;;;33.60;97049.00;;;;8309201;28;20709;-67
2022/07/12 15:03:34;;;;;;;1.73;1.10;;;;;33.00;97052.00;;;;8308221;28;20319;-66
2022/07/12 15:07:37;;;;;;;1.13;0.90;;;;;33.00;97043.00;;;;8311056;28;20253;-67
2022/07/12 15:11:43;;;;;;;0.80;0.80;;;;;33.40;97053.00;;;;8312903;28;20736;-67
2022/07/12 15:15:48;;;;;;;0.88;0.88;;;;;33.50;97047.00;;;;8311201;28;20220;-68
2022/07/12 15:19:53;;;;;;;1.67;1.02;;;;;33.50;97048.00;;;;8349116;28;20312;-66
2022/07/12 15:23:56;;;;;;;1.38;1.13;;;;;32.90;97045.00;;;;8333406;28;20230;-67
2022/07/12 15:27:59;;;;;;;0.90;0.90;;;;;32.80;97054.00;;;;8332605;28;20895;-66
2022/07/12 15:32:02;;;;;;;1.15;1.02;;;;;32.50;97047.00;;;;8351790;28;20224;-66
2022/07/12 15:36:07;;;;;;;1.17;1.05;;;;;32.40;97047.00;;;;8329828;28;20220;-67
2022/07/12 15:40:11;;;;;;;1.92;0.90;;;;;32.30;97042.00;;;;8325712;28;20232;-67
2022/07/12 15:44:15;;;;;;;0.90;0.90;;;;;32.00;97044.00;;;;8341331;28;20276;-67
2022/07/12 15:48:18;;;;;;;1.00;1.00;;;;;31.10;97044.00;;;;8328440;28;20768;-66
2022/07/12 15:56:44;;;;;;;1.00;1.00;;;;;32.30;97035.00;;;;8328966;28;20867;-66
2022/07/12 16:00:54;;;;;;;0.90;0.90;;;;;32.40;97033.00;;;;8323864;28;20232;-67
2022/07/12 16:04:57;;;;;;;1.35;1.35;;;;;32.70;97033.00;;;;8340224;28;20240;-66
2022/07/12 16:09:02;;;;;;;0.80;0.80;;;;;33.20;97039.00;;;;8334229;28;20242;-68
2022/07/12 16:13:06;;;;;;;0.95;0.95;;;;;33.60;97031.00;;;;8326350;28;20263;-67
2022/07/12 16:17:09;;;;;;;1.05;1.05;;;;;33.70;97037.00;;;;8323598;28;20231;-67
2022/07/12 16:21:13;;;;;;;1.20;1.10;;;;;33.20;97043.00;;;;8335062;28;20693;-68
2022/07/12 16:25:17;;;;;;;1.08;1.08;;;;;33.00;97044.00;;;;8326151;28;20247;-68
2022/07/12 16:29:21;;;;;;;1.65;1.08;;;;;32.90;97039.00;;;;8317189;28;20376;-66
2022/07/12 16:33:24;;;;;;;0.98;0.98;;;;;32.20;97039.00;;;;8330205;28;20324;-68
2022/07/12 16:37:27;;;;;;;1.10;1.10;;;;;32.30;97039.00;;;;8321262;28;20318;-69
2022/07/12 16:41:32;;;;;;;1.20;1.10;;;;;32.70;97037.00;;;;8314449;28;20221;-67
2022/07/12 16:45:35;;;;;;;3.03;0.90;;;;;33.30;97034.00;;;;8323423;28;20769;-68
2022/07/12 16:49:38;;;;;;;1.30;1.10;;;;;33.70;97048.00;;;;8315657;28;20231;-67
2022/07/12 16:53:42;;;;;;;0.90;0.90;;;;;33.30;97039.00;;;;8318757;28;20255;-67
2022/07/12 16:57:46;;;;;;;1.10;1.00;;;;;32.90;97043.00;;;;8323339;28;20241;-67
2022/07/12 17:01:50;;;;;;;1.00;1.00;;;;;33.40;97040.00;;;;8316875;28;20236;-68
2022/07/12 17:05:53;;;;;;;1.00;1.00;;;;;33.70;97035.00;;;;8315718;28;20234;-68
2022/07/12 17:09:57;;;;;;;2.22;1.02;;;;;34.20;97042.00;;;;8312364;28;20228;-68
2022/07/12 17:14:02;;;;;;;1.00;1.00;;;;;34.60;97051.00;;;;8310175;28;20229;-67
2022/07/12 17:18:05;;;;;;;1.30;1.20;;;;;34.20;97056.00;;;;8318440;28;20229;-68
2022/07/12 17:22:10;;;;;;;1.08;1.08;;;;;33.70;97057.00;;;;8312907;28;20222;-67
2022/07/12 17:26:13;;;;;;;0.82;0.82;;;;;33.80;97048.00;;;;8316911;28;20586;-68
2022/07/12 17:30:18;;;;;;;1.10;1.10;;;;;34.10;97047.00;;;;8309946;28;20237;-67
2022/07/12 17:34:21;;;;;;;2.05;1.00;;;;;33.90;97052.00;;;;8310044;28;20233;-67
2022/07/12 17:38:24;;;;;;;1.02;1.02;;;;;34.10;97060.00;;;;8314100;28;20237;-68
2022/07/12 17:42:28;;;;;;;0.90;0.90;;;;;34.40;97059.00;;;;8316298;28;20225;-70
2022/07/12 17:46:34;;;;;;;2.33;0.90;;;;;34.60;97061.00;;;;8305751;28;20237;-70
2022/07/12 17:50:37;;;;;;;1.02;1.02;;;;;34.90;97064.00;;;;8316102;28;20236;-69
2022/07/12 17:54:40;;;;;;;1.13;1.13;;;;;35.10;97064.00;;;;8320197;28;20325;-69
2022/07/12 17:58:44;;;;;;;1.02;0.98;;;;;35.00;97061.00;;;;8318372;28;20316;-69
2022/07/12 18:02:49;;;;;;;0.90;0.90;;;;;34.20;97066.00;;;;8311112;28;20335;-68
2022/07/12 18:06:59;;;;;;;1.52;0.82;;;;;32.70;97066.00;;;;8311918;28;20225;-68
2022/07/12 18:14:41;;;;;;;1.75;1.00;;;;;31.60;97068.00;;;;8307923;28;20229;-68
2022/07/12 18:15:25;;;;;;;0.90;0.90;;;;;30.70;97071.00;;;;8313294;28;20277;-68
2022/07/12 18:19:30;;;;;;;1.00;1.00;;;;;29.90;97069.00;;;;8301255;28;20826;-68
2022/07/12 18:23:33;;;;;;;1.08;1.08;;;;;29.20;97072.00;;;;8309957;28;20416;-68
2022/07/12 18:27:37;;;;;;;1.08;1.05;;;;;28.60;97074.00;;;;8320042;28;20225;-68
2022/07/12 18:31:40;;;;;;;1.00;1.00;;;;;28.00;97076.00;;;;8305348;28;20224;-68
2022/07/12 18:35:45;;;;;;;0.95;0.95;;;;;27.60;97078.00;;;;8314778;28;20651;-68
2022/07/12 18:39:48;;;;;;;2.08;1.10;;;;;27.20;97067.00;;;;8313839;28;20230;-68
2022/07/12 18:43:51;;;;;;;1.33;1.10;;;;;26.70;97070.00;;;;8315212;28;20225;-68
2022/07/12 18:47:54;;;;;;;0.90;0.90;;;;;26.40;97062.00;;;;8317410;28;20325;-68
2022/07/12 18:51:59;;;;;;;1.10;1.05;;;;;26.00;97063.00;;;;8318919;28;20283;-67
2022/07/12 18:56:03;;;;;;;1.00;1.00;;;;;25.60;97061.00;;;;8311013;28;20771;-67
2022/07/12 19:00:09;;;;;;;1.20;1.20;;;;;25.30;97054.00;;;;8314065;28;20232;-67
2022/07/12 19:04:14;;;;;;;1.20;1.20;;;;;24.90;97051.00;;;;8310750;28;20687;-67
2022/07/12 19:08:19;;;;;;;2.30;1.38;;;;;24.50;97069.00;;;;8304656;28;20222;-66
2022/07/12 19:12:22;;;;;;;1.45;1.33;;;;;24.10;97068.00;;;;8326009;28;20945;-67
2022/07/12 19:16:26;;;;;;;1.20;1.20;;;;;23.70;97064.00;;;;8306517;28;20324;-66
2022/07/12 19:20:29;;;;;;;1.10;1.10;;;;;23.30;97071.00;;;;8313656;28;20240;-67
2022/07/12 19:24:34;;;;;;;1.20;1.10;;;;;22.80;97070.00;;;;8316891;28;20236;-65
2022/07/12 19:28:37;;;;;;;1.60;1.20;;;;;22.30;97082.00;;;;8302545;28;20221;-67
2022/07/12 19:32:40;;;;;;;1.30;1.30;;;;;21.90;97075.00;;;;8308152;28;20229;-66
2022/07/12 19:36:44;;;;;;;1.40;1.33;;;;;21.70;97082.00;;;;8314821;28;20229;-66
2022/07/12 19:40:48;;;;;;;1.33;1.23;;;;;21.50;97087.00;;;;8314258;28;20217;-67
2022/07/12 19:44:51;;;;;;;1.33;1.20;;;;;21.40;97092.00;;;;8320807;28;20869;-67
2022/07/12 19:48:55;;;;;;;3.97;1.38;;;;;21.30;97092.00;;;;8328447;28;20228;-66
2022/07/12 19:52:58;;;;;;;2.55;1.20;;;;;21.30;97102.00;;;;8325821;28;20223;-67
2022/07/12 19:57:03;;;;;;;4.47;1.50;;;;;21.10;97106.00;;;;8317628;28;20225;-66
2022/07/12 20:01:06;;;;;;;3.60;1.50;;;;;20.80;97097.00;;;;8319865;28;20246;-66
2022/07/12 20:05:10;;;;;;;1.95;1.30;;;;;20.50;97095.00;;;;8323612;28;20228;-66
2022/07/12 20:09:13;;;;;;;7.80;1.63;;;;;20.30;97100.00;;;;8326891;28;20229;-67
2022/07/12 20:13:19;;;;;;;3.08;1.45;;;;;20.10;97106.00;;;;8313926;28;20260;-68
2022/07/12 20:17:22;;;;;;;1.20;1.20;;;;;19.90;97102.00;;;;8313473;28;20750;-68
2022/07/12 20:21:25;;;;;;;1.38;1.38;;;;;19.80;97105.00;;;;8316719;28;20256;-67
2022/07/12 20:25:28;;;;;;;2.60;1.42;;;;;19.90;97104.00;;;;8312100;28;20221;-67
2022/07/12 20:29:33;;;;;;;3.22;1.40;;;;;19.90;97099.00;;;;8315704;28;20336;-67
2022/07/12 20:37:57;;;;;;;1.45;1.38;;;;;19.60;97103.00;;;;8317524;28;20225;-67
2022/07/12 20:42:02;;;;;;;3.13;1.60;;;;;19.60;97104.00;;;;8313916;28;20877;-67